Time;durP1;ratioP1;P1;durP2;ratioP2;P2;SDS_P1;SDS_P2;PMS_P1;PMS_P2;Temp;Humidity;BMP_temperature;BMP_pressure;BME280_temperature;BME280_humidity;BME280_pressure;Samples;Min_cycle;Max_cycle;Signal;HPM_P1;HPM_P2
2023/04/16 03:02:27;;;;;;;59.40;55.50;;;7.90;99.90;;;;;;5003895;23;20659;-73
2023/04/16 03:04:53;;;;;;;57.33;53.53;;;7.90;99.90;;;;;;4914881;29;20179;-73
2023/04/16 03:07:19;;;;;;;61.93;57.80;;;7.90;99.90;;;;;;4916018;29;20252;-73
2023/04/16 03:09:45;;;;;;;63.73;59.77;;;7.90;99.90;;;;;;4916522;29;20722;-73
2023/04/16 03:12:11;;;;;;;62.20;58.10;;;7.90;99.90;;;;;;4917756;29;20203;-74
2023/04/16 03:14:36;;;;;;;59.80;55.83;;;7.90;99.90;;;;;;4879350;29;20191;-74
2023/04/16 03:17:02;;;;;;;45.10;41.80;;;7.90;99.90;;;;;;4895636;29;20180;-75
2023/04/16 03:19:28;;;;;;;58.10;54.17;;;7.80;99.90;;;;;;4895695;29;20262;-76
2023/04/16 03:21:54;;;;;;;41.77;38.57;;;7.80;99.90;;;;;;4895376;29;20223;-75
2023/04/16 03:24:20;;;;;;;51.00;47.40;;;7.90;99.90;;;;;;4881576;29;20180;-75
2023/04/16 03:26:45;;;;;;;51.60;48.17;;;7.90;99.90;;;;;;4904550;29;20203;-76
2023/04/16 03:29:11;;;;;;;55.77;51.80;;;7.90;99.90;;;;;;4895649;29;20671;-76
2023/04/16 03:31:37;;;;;;;54.13;50.43;;;7.90;99.90;;;;;;4878493;29;20211;-75
2023/04/16 03:34:03;;;;;;;61.70;57.73;;;7.90;99.90;;;;;;4895281;29;20617;-75
2023/04/16 03:36:28;;;;;;;47.97;44.77;;;7.90;99.90;;;;;;4883676;29;20175;-76
2023/04/16 03:38:54;;;;;;;58.33;54.60;;;7.90;99.90;;;;;;4897504;29;20269;-75
2023/04/16 03:41:20;;;;;;;58.70;54.67;;;7.90;99.90;;;;;;4914054;29;20212;-75
2023/04/16 03:43:45;;;;;;;53.37;49.77;;;7.90;99.90;;;;;;4897903;29;20183;-75
2023/04/16 03:46:11;;;;;;;47.80;44.53;;;7.90;99.90;;;;;;4914371;29;20234;-74
2023/04/16 03:48:37;;;;;;;51.67;48.13;;;7.90;99.90;;;;;;4897288;29;20694;-75
2023/04/16 03:51:03;;;;;;;55.30;51.63;;;7.90;99.90;;;;;;4902997;29;20325;-75
2023/04/16 03:53:29;;;;;;;48.73;45.23;;;7.90;99.90;;;;;;4895547;29;20188;-75
2023/04/16 03:55:55;;;;;;;51.87;48.23;;;7.90;99.90;;;;;;4882468;29;20358;-75
2023/04/16 03:58:21;;;;;;;49.23;45.80;;;7.90;99.90;;;;;;4898741;29;20193;-75
2023/04/16 04:00:47;;;;;;;66.30;61.93;;;7.90;99.90;;;;;;4898796;29;20229;-75
2023/04/16 04:03:15;;;;;;;48.43;45.07;;;7.90;99.90;;;;;;4882342;29;20274;-75
2023/04/16 04:05:42;;;;;;;43.03;39.90;;;7.90;99.90;;;;;;4901397;29;20183;-76
2023/04/16 04:08:08;;;;;;;52.10;48.60;;;7.90;99.90;;;;;;4917342;29;20214;-75
2023/04/16 04:10:35;;;;;;;33.17;30.57;;;7.90;99.90;;;;;;4900493;29;20203;-75
2023/04/16 04:13:03;;;;;;;30.70;28.23;;;7.90;99.90;;;;;;4917955;29;20180;-75
2023/04/16 04:15:29;;;;;;;44.93;41.90;;;7.90;99.90;;;;;;4917858;29;20254;-75
2023/04/16 04:17:55;;;;;;;37.17;34.47;;;7.90;99.90;;;;;;4917403;29;20706;-75
2023/04/16 04:20:21;;;;;;;32.00;29.30;;;7.90;99.90;;;;;;4890956;29;20191;-76
2023/04/16 04:22:47;;;;;;;33.10;30.43;;;7.90;99.90;;;;;;4882314;29;20196;-75
2023/04/16 04:25:14;;;;;;;39.93;36.53;;;7.90;99.90;;;;;;4882286;29;20195;-75
2023/04/16 04:27:40;;;;;;;27.73;25.23;;;7.90;99.90;;;;;;4881628;29;20207;-75
2023/04/16 04:30:07;;;;;;;26.47;24.37;;;7.90;99.90;;;;;;4881979;29;20187;-75
2023/04/16 04:32:32;;;;;;;24.80;22.43;;;7.90;99.90;;;;;;4905160;29;20203;-75
2023/04/16 04:35:00;;;;;;;35.20;32.47;;;7.90;99.90;;;;;;4917490;29;20180;-74
2023/04/16 04:37:26;;;;;;;48.33;45.17;;;7.90;99.90;;;;;;4900141;29;20191;-75
2023/04/16 04:39:52;;;;;;;40.07;37.00;;;7.90;99.90;;;;;;4900516;29;20683;-75
2023/04/16 04:42:19;;;;;;;47.47;44.23;;;7.90;99.90;;;;;;4900451;29;20262;-76
2023/04/16 04:44:45;;;;;;;39.80;36.90;;;7.90;99.90;;;;;;4900538;29;20186;-75
2023/04/16 04:47:10;;;;;;;32.87;30.27;;;7.90;99.90;;;;;;4886087;29;20204;-74
2023/04/16 04:49:36;;;;;;;26.17;24.03;;;7.90;99.90;;;;;;4881621;29;20187;-75
2023/04/16 04:52:02;;;;;;;21.10;19.10;;;8.00;99.90;;;;;;4881697;29;20263;-76
2023/04/16 04:54:29;;;;;;;17.03;15.27;;;8.00;99.90;;;;;;4898183;29;20188;-76
2023/04/16 04:56:55;;;;;;;17.40;15.13;;;8.00;99.90;;;;;;4882294;29;20184;-75
2023/04/16 04:59:22;;;;;;;17.50;15.30;;;8.00;99.90;;;;;;4899660;29;20227;-76
2023/04/16 05:01:48;;;;;;;16.97;15.10;;;8.00;99.90;;;;;;4900250;29;20579;-75
2023/04/16 05:04:14;;;;;;;20.23;15.93;;;8.00;99.90;;;;;;4899929;29;20179;-75
2023/04/16 05:06:40;;;;;;;17.80;15.93;;;8.00;99.90;;;;;;4898901;29;20567;-76
2023/04/16 05:09:10;;;;;;;19.50;15.47;;;8.00;99.90;;;;;;4916493;29;20259;-76
2023/04/16 05:11:40;;;;;;;20.30;16.10;;;8.00;99.90;;;;;;4899812;29;20202;-76
2023/04/16 05:14:06;;;;;;;21.67;16.27;;;8.00;99.90;;;;;;4906850;29;20192;-77
2023/04/16 05:16:33;;;;;;;30.30;27.50;;;8.10;99.90;;;;;;4897732;29;20188;-76
2023/04/16 05:18:59;;;;;;;22.90;19.03;;;8.00;99.90;;;;;;4897664;29;20188;-76
2023/04/16 05:21:25;;;;;;;22.40;20.10;;;8.10;99.90;;;;;;4897699;29;20207;-77
2023/04/16 05:23:51;;;;;;;27.47;24.93;;;8.10;99.90;;;;;;4881262;29;20568;-77
2023/04/16 05:26:16;;;;;;;36.43;33.50;;;8.10;99.90;;;;;;4880949;29;20183;-77
2023/04/16 05:28:42;;;;;;;33.70;30.63;;;8.10;99.90;;;;;;4897044;29;20242;-76
2023/04/16 05:31:08;;;;;;;31.07;28.20;;;8.10;99.90;;;;;;4899594;29;20622;-76
2023/04/16 05:33:34;;;;;;;27.50;24.63;;;8.10;99.90;;;;;;4916486;29;20605;-77
2023/04/16 05:35:59;;;;;;;20.77;16.33;;;8.10;99.90;;;;;;4916373;29;20239;-77
2023/04/16 05:38:25;;;;;;;20.77;15.90;;;8.10;99.90;;;;;;4916128;29;20194;-77
2023/04/16 05:40:51;;;;;;;22.37;16.33;;;8.10;99.90;;;;;;4894631;29;20236;-76
2023/04/16 05:43:17;;;;;;;28.97;25.97;;;8.10;99.90;;;;;;4897522;29;20556;-76
2023/04/16 05:45:42;;;;;;;16.77;14.17;;;8.10;99.90;;;;;;4916917;29;20182;-74
2023/04/16 05:48:08;;;;;;;24.80;22.30;;;8.10;99.90;;;;;;4917495;29;20202;-74
2023/04/16 05:50:35;;;;;;;22.10;19.87;;;8.10;99.90;;;;;;4934870;29;20284;-76
2023/04/16 05:53:03;;;;;;;16.40;14.30;;;8.10;99.90;;;;;;4917992;29;20186;-77
2023/04/16 05:55:28;;;;;;;14.70;12.60;;;8.10;99.90;;;;;;4921830;29;20203;-77
2023/04/16 05:57:54;;;;;;;18.43;15.93;;;8.10;99.90;;;;;;4898589;29;20613;-77
2023/04/16 06:00:20;;;;;;;29.67;27.10;;;8.10;99.90;;;;;;4908060;29;20198;-77
2023/04/16 06:02:45;;;;;;;20.60;16.20;;;8.10;99.90;;;;;;4896554;29;20274;-77
2023/04/16 06:05:12;;;;;;;19.43;16.47;;;8.10;99.90;;;;;;4898439;29;20188;-77
2023/04/16 06:07:38;;;;;;;15.60;13.93;;;8.00;99.90;;;;;;4916737;29;20275;-74
2023/04/16 06:10:04;;;;;;;25.17;22.87;;;8.10;99.90;;;;;;4916912;29;20714;-73
2023/04/16 06:12:30;;;;;;;45.23;41.97;;;8.10;99.90;;;;;;4918934;29;20866;-74
2023/04/16 06:14:56;;;;;;;27.07;24.53;;;8.10;99.90;;;;;;4920388;29;20202;-76
2023/04/16 06:17:22;;;;;;;48.17;44.20;;;8.10;99.90;;;;;;4915752;29;20195;-77
2023/04/16 06:19:48;;;;;;;34.93;32.10;;;8.10;99.90;;;;;;4934021;29;20285;-77
2023/04/16 06:22:15;;;;;;;22.23;19.67;;;8.10;99.90;;;;;;4927071;29;20214;-76
2023/04/16 06:24:40;;;;;;;23.87;21.30;;;8.10;99.90;;;;;;4915015;29;20556;-76
2023/04/16 06:27:06;;;;;;;37.23;33.97;;;8.10;99.90;;;;;;4898405;29;20187;-75
2023/04/16 06:29:32;;;;;;;20.80;18.67;;;8.10;99.90;;;;;;4914729;29;20541;-76
2023/04/16 06:31:58;;;;;;;21.43;17.60;;;8.10;99.90;;;;;;4915101;29;20686;-76
2023/04/16 06:34:23;;;;;;;50.63;46.63;;;8.10;99.90;;;;;;4898167;29;20190;-76
2023/04/16 06:36:49;;;;;;;21.43;18.27;;;8.20;99.90;;;;;;4884357;29;20194;-76
2023/04/16 06:39:15;;;;;;;24.77;20.23;;;8.20;99.90;;;;;;4895664;29;20199;-75
2023/04/16 06:41:41;;;;;;;24.70;19.07;;;8.20;99.90;;;;;;4895896;29;20897;-75
2023/04/16 06:44:07;;;;;;;23.67;20.70;;;8.20;99.90;;;;;;4879047;29;20190;-75
2023/04/16 06:46:33;;;;;;;24.63;21.47;;;8.20;99.90;;;;;;4895650;29;20280;-75
2023/04/16 06:48:59;;;;;;;27.73;21.53;;;8.20;99.90;;;;;;4896512;29;20207;-76
2023/04/16 06:51:25;;;;;;;27.03;22.07;;;8.20;99.90;;;;;;4897368;29;20203;-75
2023/04/16 06:53:51;;;;;;;29.37;23.50;;;8.20;99.90;;;;;;4915338;29;20598;-76
2023/04/16 06:56:17;;;;;;;30.97;22.43;;;8.20;99.90;;;;;;4933548;29;20193;-76
2023/04/16 06:58:42;;;;;;;28.70;23.57;;;8.20;99.90;;;;;;4916280;29;20195;-77
2023/04/16 07:01:08;;;;;;;37.27;33.27;;;8.20;99.90;;;;;;4933218;29;20265;-76
2023/04/16 07:03:35;;;;;;;31.63;24.33;;;8.20;99.90;;;;;;4924462;29;20606;-76
2023/04/16 07:06:01;;;;;;;31.97;26.77;;;8.20;99.90;;;;;;4913947;29;20195;-76
2023/04/16 07:08:26;;;;;;;32.30;24.40;;;8.20;99.90;;;;;;4897079;29;20215;-76
2023/04/16 07:10:53;;;;;;;33.80;23.97;;;8.20;99.90;;;;;;4897369;29;20302;-76
2023/04/16 07:13:19;;;;;;;34.43;24.67;;;8.10;99.90;;;;;;4897497;29;20194;-74
2023/04/16 07:15:45;;;;;;;32.20;25.40;;;8.10;99.90;;;;;;4914499;29;20179;-74
2023/04/16 07:18:10;;;;;;;36.90;24.70;;;8.10;99.90;;;;;;4881951;29;20192;-73
2023/04/16 07:20:36;;;;;;;32.07;23.37;;;8.10;99.90;;;;;;4895407;29;20212;-74
2023/04/16 07:23:02;;;;;;;32.33;23.93;;;8.10;99.90;;;;;;4895523;29;20878;-73
2023/04/16 07:25:28;;;;;;;32.57;24.50;;;8.10;99.90;;;;;;4895653;29;20790;-72
2023/04/16 07:27:53;;;;;;;39.10;28.23;;;8.10;99.90;;;;;;4878580;29;20591;-73
2023/04/16 07:30:19;;;;;;;38.40;30.33;;;8.10;99.90;;;;;;4901314;29;20202;-74
2023/04/16 07:32:45;;;;;;;43.50;33.10;;;8.10;99.90;;;;;;4901516;29;20226;-74
2023/04/16 07:35:11;;;;;;;42.63;29.00;;;8.20;99.90;;;;;;4901299;29;20195;-74
2023/04/16 07:37:36;;;;;;;39.57;31.90;;;8.20;99.90;;;;;;4917705;29;20220;-73
2023/04/16 07:40:03;;;;;;;41.50;30.70;;;8.20;99.90;;;;;;4901447;29;20187;-74
2023/04/16 07:42:29;;;;;;;35.03;25.80;;;8.20;99.90;;;;;;4901574;29;20207;-74
2023/04/16 07:44:54;;;;;;;36.43;24.27;;;8.20;99.90;;;;;;4908449;29;20584;-73
2023/04/16 07:47:21;;;;;;;40.00;35.73;;;8.20;99.90;;;;;;4899375;29;20230;-73
2023/04/16 07:49:48;;;;;;;38.47;34.40;;;8.20;99.90;;;;;;4882882;29;20239;-73
2023/04/16 07:52:14;;;;;;;36.03;27.90;;;8.20;99.90;;;;;;4898802;29;20200;-74
2023/04/16 07:54:40;;;;;;;37.37;26.80;;;8.30;99.90;;;;;;4913265;29;20551;-73
2023/04/16 07:57:05;;;;;;;33.90;25.40;;;8.30;99.90;;;;;;4919429;29;20285;-74
2023/04/16 07:59:31;;;;;;;41.10;36.93;;;8.30;99.90;;;;;;4900781;29;20191;-74
2023/04/16 08:01:57;;;;;;;47.30;42.73;;;8.30;99.90;;;;;;4917434;29;20849;-73
2023/04/16 08:04:23;;;;;;;37.63;32.30;;;8.40;99.90;;;;;;4917743;29;20195;-73
2023/04/16 08:06:53;;;;;;;37.33;33.53;;;8.30;99.90;;;;;;4900424;29;20648;-73
2023/04/16 08:09:20;;;;;;;39.30;35.00;;;8.40;99.90;;;;;;4917948;29;20244;-73
2023/04/16 08:11:48;;;;;;;32.63;25.83;;;8.40;99.90;;;;;;4905925;29;20294;-75
2023/04/16 08:14:14;;;;;;;54.00;48.67;;;8.60;99.90;;;;;;4882251;29;20192;-74
2023/04/16 08:16:40;;;;;;;38.77;34.83;;;8.60;99.90;;;;;;4898762;29;20172;-73
2023/04/16 08:19:06;;;;;;;45.53;40.97;;;8.60;99.90;;;;;;4898649;29;20186;-74
2023/04/16 08:21:32;;;;;;;88.90;82.37;;;8.60;99.90;;;;;;4898632;29;20214;-73
2023/04/16 08:23:58;;;;;;;32.13;26.93;;;8.50;99.90;;;;;;4898847;29;20192;-75
2023/04/16 08:26:24;;;;;;;59.83;54.50;;;8.50;99.90;;;;;;4917131;29;20283;-74
2023/04/16 08:28:50;;;;;;;35.87;27.50;;;8.60;99.90;;;;;;4916838;29;20219;-75
2023/04/16 08:31:15;;;;;;;50.77;46.00;;;8.60;99.90;;;;;;4917699;29;20233;-75
2023/04/16 08:33:42;;;;;;;31.60;24.63;;;8.60;99.90;;;;;;4900172;29;20648;-74
2023/04/16 08:36:08;;;;;;;49.10;44.53;;;8.50;99.90;;;;;;4917284;29;20191;-71
2023/04/16 08:38:34;;;;;;;108.07;100.27;;;8.60;99.90;;;;;;4893559;29;20304;-73
2023/04/16 08:41:04;;;;;;;56.10;51.50;;;8.60;99.90;;;;;;4909547;29;20344;-73
2023/04/16 08:43:36;;;;;;;28.37;20.13;;;8.60;99.90;;;;;;4881546;29;20644;-73
2023/04/16 08:46:03;;;;;;;32.80;21.80;;;8.70;99.90;;;;;;4909672;29;20191;-73
2023/04/16 08:48:32;;;;;;;27.70;23.10;;;8.70;99.90;;;;;;4899780;29;20262;-74
2023/04/16 08:51:00;;;;;;;28.63;21.77;;;8.80;99.90;;;;;;4899985;29;20210;-74
2023/04/16 08:53:39;;;;;;;26.43;20.87;;;8.90;99.90;;;;;;4899012;29;20175;-75
2023/04/16 08:56:08;;;;;;;28.23;23.23;;;8.90;99.90;;;;;;4915855;29;20238;-73
2023/04/16 08:58:36;;;;;;;24.10;18.07;;;9.00;99.90;;;;;;4899323;29;20225;-74
2023/04/16 09:01:03;;;;;;;26.07;20.77;;;9.10;99.90;;;;;;4900100;29;20227;-75
2023/04/16 09:03:31;;;;;;;22.40;19.00;;;9.10;99.90;;;;;;4917243;29;20652;-75
2023/04/16 09:05:58;;;;;;;22.63;19.23;;;9.20;99.90;;;;;;4917133;29;20187;-75
2023/04/16 09:08:28;;;;;;;21.87;17.73;;;9.00;99.90;;;;;;4916818;29;20657;-75
2023/04/16 09:10:58;;;;;;;22.17;17.63;;;9.00;99.90;;;;;;4916825;29;20199;-75
2023/04/16 09:13:24;;;;;;;21.20;18.50;;;8.90;99.90;;;;;;4885459;29;20278;-76
2023/04/16 09:15:53;;;;;;;24.07;20.00;;;8.80;99.90;;;;;;4936032;23;20303;-73
2023/04/16 09:18:20;;;;;;;22.03;18.83;;;8.80;99.90;;;;;;4911999;29;20198;-74
2023/04/16 09:20:47;;;;;;;24.13;18.33;;;8.80;99.90;;;;;;4899773;29;20187;-74
2023/04/16 09:23:13;;;;;;;25.50;18.90;;;8.80;99.90;;;;;;4917031;29;20269;-74
2023/04/16 09:25:39;;;;;;;27.77;19.90;;;8.70;99.90;;;;;;4917052;29;20269;-74
2023/04/16 09:28:04;;;;;;;21.07;16.13;;;8.80;99.90;;;;;;4899402;29;20207;-74
2023/04/16 09:30:30;;;;;;;23.53;19.30;;;8.80;99.90;;;;;;4916660;29;20711;-74
2023/04/16 09:33:21;;;;;;;21.07;17.57;;;8.70;99.90;;;;;;4916653;29;20560;-74
2023/04/16 09:35:53;;;;;;;18.83;16.10;;;8.70;99.90;;;;;;4916328;29;20187;-74
2023/04/16 09:38:19;;;;;;;22.60;15.77;;;8.70;99.90;;;;;;4915813;29;20601;-74
2023/04/16 09:40:46;;;;;;;21.27;16.37;;;8.60;99.90;;;;;;4916111;29;20551;-74
2023/04/16 09:43:19;;;;;;;24.40;17.23;;;8.60;99.90;;;;;;4899455;29;20651;-74
2023/04/16 09:45:53;;;;;;;20.67;16.03;;;8.60;99.90;;;;;;4916262;29;20187;-74
2023/04/16 09:48:31;;;;;;;21.30;16.43;;;8.70;99.90;;;;;;4915816;29;20215;-74
2023/04/16 09:50:58;;;;;;;19.40;16.17;;;8.70;99.90;;;;;;4916717;29;20190;-74
2023/04/16 09:53:29;;;;;;;20.47;15.77;;;8.70;99.90;;;;;;4915725;29;20183;-74
2023/04/16 09:55:59;;;;;;;27.70;25.13;;;8.80;99.90;;;;;;4915837;29;20216;-74
2023/04/16 09:58:25;;;;;;;25.77;23.40;;;8.70;99.90;;;;;;4915898;29;20187;-74
2023/04/16 10:01:01;;;;;;;26.87;24.27;;;8.70;99.90;;;;;;4916780;29;20238;-73
2023/04/16 10:03:31;;;;;;;22.27;17.10;;;8.70;99.90;;;;;;4916199;29;20280;-73
2023/04/16 10:06:16;;;;;;;20.37;16.43;;;8.80;99.90;;;;;;4915952;29;20206;-73
2023/04/16 10:08:47;;;;;;;20.57;16.30;;;8.80;99.90;;;;;;4898403;29;20298;-73
2023/04/16 10:11:16;;;;;;;22.53;20.07;;;8.80;99.90;;;;;;4899061;29;20186;-73
2023/04/16 10:13:42;;;;;;;19.43;16.00;;;8.90;99.90;;;;;;4898960;29;20194;-74
2023/04/16 10:16:08;;;;;;;30.23;27.03;;;8.90;99.90;;;;;;4915714;29;20215;-73
2023/04/16 10:18:39;;;;;;;45.07;41.30;;;9.00;99.90;;;;;;4915830;29;20187;-73
2023/04/16 10:21:06;;;;;;;50.67;46.07;;;8.90;99.90;;;;;;4915742;29;20183;-73
2023/04/16 10:23:33;;;;;;;39.87;36.50;;;8.90;99.90;;;;;;4916208;29;20234;-73
2023/04/16 10:26:00;;;;;;;30.83;27.97;;;8.90;99.90;;;;;;4915896;29;20296;-73
2023/04/16 10:28:28;;;;;;;32.37;29.27;;;8.80;99.90;;;;;;4915007;29;20327;-73
2023/04/16 10:30:56;;;;;;;20.83;18.33;;;8.80;99.90;;;;;;4915549;29;20681;-74
2023/04/16 10:33:32;;;;;;;20.97;17.23;;;8.80;99.90;;;;;;4915833;29;20181;-73
2023/04/16 10:36:13;;;;;;;21.60;17.13;;;8.70;99.90;;;;;;4898479;29;20206;-73
2023/04/16 10:38:46;;;;;;;25.07;18.57;;;8.70;99.90;;;;;;4898380;29;20183;-73
2023/04/16 10:41:13;;;;;;;31.63;28.27;;;8.80;99.90;;;;;;4915436;29;20233;-73
2023/04/16 10:43:44;;;;;;;23.83;21.27;;;8.80;99.90;;;;;;4898513;29;20221;-72
2023/04/16 10:46:32;;;;;;;20.20;15.70;;;8.70;99.90;;;;;;4898680;29;20221;-73
2023/04/16 10:49:11;;;;;;;21.23;18.67;;;8.70;99.90;;;;;;4915423;29;20211;-73
2023/04/16 10:51:37;;;;;;;21.33;16.77;;;8.70;99.90;;;;;;4915822;29;20215;-72
2023/04/16 10:54:19;;;;;;;21.40;17.43;;;8.70;99.90;;;;;;4927247;29;20186;-73
2023/04/16 10:56:46;;;;;;;22.00;18.10;;;8.70;99.90;;;;;;4906503;29;20211;-73
2023/04/16 10:59:12;;;;;;;24.17;21.57;;;8.70;99.90;;;;;;4917734;29;20193;-73
2023/04/16 11:01:43;;;;;;;28.77;25.27;;;8.60;99.90;;;;;;4915114;29;20183;-73
2023/04/16 11:04:20;;;;;;;22.23;17.73;;;8.60;99.90;;;;;;4915117;29;20183;-73
2023/04/16 11:07:02;;;;;;;20.10;16.97;;;8.60;99.90;;;;;;4915195;29;20683;-74
2023/04/16 11:09:50;;;;;;;22.53;16.83;;;8.50;99.90;;;;;;4914967;29;20217;-76
2023/04/16 11:12:18;;;;;;;33.30;30.40;;;8.60;99.90;;;;;;4898185;29;20178;-73
2023/04/16 11:14:48;;;;;;;30.07;27.00;;;8.60;99.90;;;;;;4914522;29;20239;-74
2023/04/16 11:17:15;;;;;;;24.07;21.77;;;8.60;99.90;;;;;;4914590;29;20707;-73
2023/04/16 11:19:41;;;;;;;29.63;26.90;;;8.60;99.90;;;;;;4915036;29;20187;-74
2023/04/16 11:22:09;;;;;;;29.63;26.93;;;8.70;99.90;;;;;;4915103;29;20608;-72
2023/04/16 11:24:35;;;;;;;28.67;25.57;;;8.70;99.90;;;;;;4914800;29;20194;-73
2023/04/16 11:27:01;;;;;;;28.70;25.83;;;8.70;99.90;;;;;;4914458;29;20203;-73
2023/04/16 11:29:30;;;;;;;28.30;25.60;;;8.70;99.90;;;;;;4892848;29;20208;-73
2023/04/16 11:31:56;;;;;;;23.13;16.63;;;8.70;99.90;;;;;;4916871;29;20202;-72
2023/04/16 11:34:21;;;;;;;17.83;15.93;;;8.70;99.90;;;;;;4914624;29;20277;-72
2023/04/16 11:36:50;;;;;;;19.03;15.70;;;8.70;99.90;;;;;;4929827;29;20687;-72
2023/04/16 11:39:16;;;;;;;22.00;16.73;;;8.70;99.90;;;;;;4916416;29;20178;-72
2023/04/16 11:41:46;;;;;;;20.87;15.90;;;8.70;99.90;;;;;;4899689;29;20183;-73
2023/04/16 11:44:24;;;;;;;23.40;19.93;;;8.70;99.90;;;;;;4914218;29;20198;-73
2023/04/16 11:46:51;;;;;;;21.90;19.77;;;8.70;99.90;;;;;;4913998;29;20214;-73
2023/04/16 11:49:25;;;;;;;22.20;19.87;;;8.70;99.90;;;;;;4932433;29;20233;-72
2023/04/16 11:51:52;;;;;;;20.83;18.83;;;8.60;99.90;;;;;;4933280;29;20187;-72
2023/04/16 11:54:19;;;;;;;18.17;15.17;;;8.70;99.90;;;;;;4933607;29;20197;-72
2023/04/16 11:56:47;;;;;;;16.73;14.27;;;8.70;99.90;;;;;;4933483;29;20701;-72
2023/04/16 11:59:19;;;;;;;18.37;15.03;;;8.80;99.90;;;;;;4925413;29;20191;-73
2023/04/16 12:01:48;;;;;;;20.90;16.20;;;8.80;99.90;;;;;;4894700;29;20286;-72
2023/04/16 12:04:19;;;;;;;25.07;22.87;;;8.90;99.90;;;;;;4914010;29;20595;-72
2023/04/16 12:07:03;;;;;;;22.87;20.80;;;8.90;99.90;;;;;;4914326;29;20216;-73
2023/04/16 12:09:29;;;;;;;19.17;17.17;;;8.90;99.90;;;;;;4914012;29;20606;-72
2023/04/16 12:11:55;;;;;;;18.93;17.17;;;8.90;99.90;;;;;;4897377;29;20322;-73
2023/04/16 12:14:22;;;;;;;20.37;18.63;;;8.90;99.90;;;;;;4894926;29;20566;-73
2023/04/16 12:16:48;;;;;;;25.80;23.60;;;9.00;99.90;;;;;;4912832;29;20313;-73
2023/04/16 12:19:14;;;;;;;19.33;17.53;;;9.00;99.90;;;;;;4917523;29;20222;-73
2023/04/16 12:21:45;;;;;;;14.50;12.47;;;9.00;99.90;;;;;;4917933;29;20183;-74
2023/04/16 12:24:13;;;;;;;17.77;16.13;;;9.00;99.90;;;;;;4900057;29;20196;-73
2023/04/16 12:26:47;;;;;;;13.77;12.47;;;9.10;99.90;;;;;;4900114;29;20203;-74
2023/04/16 12:29:26;;;;;;;46.60;43.63;;;9.10;99.90;;;;;;4893094;29;20222;-73
2023/04/16 12:31:53;;;;;;;14.57;13.30;;;9.10;99.90;;;;;;4900761;29;20270;-73
2023/04/16 12:34:20;;;;;;;15.00;13.43;;;9.20;99.90;;;;;;4917826;29;20658;-74
2023/04/16 12:36:47;;;;;;;17.70;16.07;;;9.30;99.90;;;;;;4917632;29;20214;-74
2023/04/16 12:39:14;;;;;;;71.43;66.97;;;9.30;99.90;;;;;;4900479;29;20250;-74
2023/04/16 12:41:42;;;;;;;77.67;73.13;;;9.20;99.90;;;;;;4917210;29;20191;-74
2023/04/16 12:44:14;;;;;;;81.90;77.27;;;9.20;99.90;;;;;;4917362;29;20190;-74
2023/04/16 12:46:42;;;;;;;82.77;78.03;;;9.20;99.90;;;;;;4900426;29;20207;-74
2023/04/16 12:49:08;;;;;;;78.43;73.83;;;9.20;99.90;;;;;;4916940;29;20215;-73
2023/04/16 12:51:35;;;;;;;65.27;61.40;;;9.20;99.90;;;;;;4924765;29;20210;-73
2023/04/16 12:54:03;;;;;;;73.63;69.30;;;9.20;99.90;;;;;;4911652;29;20186;-73
2023/04/16 12:56:29;;;;;;;53.20;50.03;;;9.20;99.90;;;;;;4916514;29;20214;-73
2023/04/16 12:58:55;;;;;;;45.20;42.43;;;9.30;99.90;;;;;;4916784;29;20552;-73
2023/04/16 13:01:22;;;;;;;70.07;66.13;;;9.20;99.90;;;;;;4917180;29;20242;-73
2023/04/16 13:03:48;;;;;;;63.30;59.50;;;9.20;99.90;;;;;;4900163;29;20269;-73
2023/04/16 13:06:15;;;;;;;80.47;75.40;;;9.20;99.90;;;;;;4916782;29;20247;-73
2023/04/16 13:08:43;;;;;;;72.97;68.90;;;9.20;99.90;;;;;;4916628;29;20265;-74
2023/04/16 13:11:09;;;;;;;61.20;57.60;;;9.20;99.90;;;;;;4916324;29;20183;-73
2023/04/16 13:13:35;;;;;;;36.17;33.97;;;9.20;99.90;;;;;;4900243;29;20190;-74
2023/04/16 13:16:05;;;;;;;48.37;45.40;;;9.20;99.90;;;;;;4917074;29;20565;-75
2023/04/16 13:18:31;;;;;;;52.90;49.50;;;9.20;99.90;;;;;;4916709;29;20206;-74
2023/04/16 13:20:57;;;;;;;31.93;29.63;;;9.20;99.90;;;;;;4916813;29;20195;-74
2023/04/16 13:23:23;;;;;;;22.40;20.77;;;9.10;99.90;;;;;;4916495;29;20194;-73
2023/04/16 13:25:49;;;;;;;15.90;14.50;;;9.10;99.90;;;;;;4916219;29;20191;-72
2023/04/16 13:28:15;;;;;;;14.80;13.47;;;9.10;99.90;;;;;;4916271;29;20219;-75
2023/04/16 13:30:41;;;;;;;14.13;12.77;;;9.10;99.90;;;;;;4900281;29;20190;-77
2023/04/16 13:33:08;;;;;;;12.33;11.17;;;9.20;99.90;;;;;;4917262;29;20198;-76
2023/04/16 13:35:34;;;;;;;13.20;11.80;;;9.30;99.90;;;;;;4899166;29;20179;-75
2023/04/16 13:38:00;;;;;;;14.40;12.90;;;9.20;99.90;;;;;;4915831;29;20609;-76
2023/04/16 13:40:26;;;;;;;13.97;12.73;;;9.20;99.90;;;;;;4916432;29;20187;-75
2023/04/16 13:42:51;;;;;;;22.70;20.93;;;9.30;99.90;;;;;;4916200;29;20194;-75
2023/04/16 13:45:19;;;;;;;54.57;51.17;;;9.30;99.90;;;;;;4899504;29;20238;-75
2023/04/16 13:47:45;;;;;;;50.10;47.07;;;9.30;99.90;;;;;;4915897;29;20234;-75
2023/04/16 13:50:11;;;;;;;65.27;61.43;;;9.20;99.90;;;;;;4916263;29;20184;-75
2023/04/16 13:52:36;;;;;;;49.10;46.17;;;9.30;99.90;;;;;;4916683;29;20187;-73
2023/04/16 13:55:03;;;;;;;30.53;28.33;;;9.30;99.90;;;;;;4916334;29;20187;-73
2023/04/16 13:57:29;;;;;;;38.33;35.67;;;9.40;99.90;;;;;;4899059;29;20246;-76
2023/04/16 13:59:55;;;;;;;81.87;77.33;;;9.40;99.90;;;;;;4899187;29;20265;-73
2023/04/16 14:02:21;;;;;;;98.33;93.13;;;9.40;99.90;;;;;;4916026;29;20183;-73
2023/04/16 14:04:47;;;;;;;77.93;73.60;;;9.40;99.90;;;;;;4916242;29;20601;-75
2023/04/16 14:07:14;;;;;;;37.60;35.17;;;9.40;99.90;;;;;;4915754;29;20207;-75
2023/04/16 14:09:40;;;;;;;33.43;31.33;;;9.40;99.90;;;;;;4899331;29;20179;-73
2023/04/16 14:12:06;;;;;;;32.83;30.73;;;9.50;99.90;;;;;;4899494;29;20270;-73
2023/04/16 14:14:32;;;;;;;21.37;19.60;;;9.50;99.90;;;;;;4915945;29;20269;-73
2023/04/16 14:16:58;;;;;;;15.33;14.13;;;9.60;99.90;;;;;;4898498;29;20219;-73
2023/04/16 14:19:24;;;;;;;16.50;15.10;;;9.50;99.90;;;;;;4915852;29;20190;-73
2023/04/16 14:21:50;;;;;;;20.50;18.87;;;9.50;99.90;;;;;;4900892;29;20568;-74
2023/04/16 14:24:15;;;;;;;16.70;15.27;;;9.50;99.90;;;;;;4898806;29;20254;-74
2023/04/16 14:26:44;;;;;;;17.13;15.63;;;9.40;99.90;;;;;;4915692;29;20273;-74
2023/04/16 14:29:10;;;;;;;14.93;13.53;;;9.40;99.90;;;;;;4898185;29;20890;-74
2023/04/16 14:31:36;;;;;;;16.33;14.80;;;9.30;99.90;;;;;;4915743;29;20191;-74
2023/04/16 14:34:02;;;;;;;20.47;18.80;;;9.40;99.90;;;;;;4915696;29;20179;-75
2023/04/16 14:36:28;;;;;;;40.67;38.03;;;9.40;99.90;;;;;;4915472;29;20203;-74
2023/04/16 14:38:54;;;;;;;101.83;96.33;;;9.40;99.90;;;;;;4914868;29;20799;-74
2023/04/16 14:41:20;;;;;;;90.77;85.47;;;9.40;99.90;;;;;;4915492;29;20227;-75
2023/04/16 14:43:46;;;;;;;94.30;89.07;;;9.40;99.90;;;;;;4915305;29;20194;-75
2023/04/16 14:46:12;;;;;;;82.57;77.87;;;9.50;99.90;;;;;;4898785;29;20262;-74
2023/04/16 14:48:37;;;;;;;104.27;98.60;;;9.50;99.90;;;;;;4898930;29;20211;-74
2023/04/16 14:51:03;;;;;;;114.80;108.57;;;9.50;99.90;;;;;;4930573;29;20215;-74
2023/04/16 14:53:30;;;;;;;118.60;111.90;;;9.50;99.90;;;;;;4924396;29;20190;-74
2023/04/16 14:55:57;;;;;;;101.10;95.43;;;9.40;99.90;;;;;;4898689;29;20213;-75
2023/04/16 14:58:24;;;;;;;99.30;93.63;;;9.40;99.90;;;;;;4914563;29;20179;-74
2023/04/16 15:00:50;;;;;;;118.17;111.70;;;9.50;99.90;;;;;;4898177;29;20284;-75
2023/04/16 15:03:16;;;;;;;87.70;82.47;;;9.40;99.90;;;;;;4915129;29;20267;-74
2023/04/16 15:05:42;;;;;;;92.00;86.30;;;9.40;99.90;;;;;;4898087;29;20218;-74
2023/04/16 15:08:07;;;;;;;40.43;37.20;;;9.40;99.90;;;;;;4914654;29;20211;-75
2023/04/16 15:10:33;;;;;;;33.00;29.80;;;9.40;99.90;;;;;;4914881;29;20195;-74
2023/04/16 15:12:59;;;;;;;25.07;20.00;;;9.40;99.90;;;;;;4898286;29;20277;-75
2023/04/16 15:15:25;;;;;;;19.20;17.13;;;9.30;99.90;;;;;;4898067;29;20194;-73
2023/04/16 15:17:51;;;;;;;19.70;17.07;;;9.30;99.90;;;;;;4950706;23;20234;-74
2023/04/16 15:20:17;;;;;;;18.70;14.57;;;9.30;99.90;;;;;;4917154;29;20202;-72
2023/04/16 15:22:43;;;;;;;18.00;15.50;;;9.30;99.90;;;;;;4917295;29;20650;-72
2023/04/16 15:25:09;;;;;;;16.20;14.33;;;9.30;99.90;;;;;;4936866;29;20187;-72
2023/04/16 15:27:35;;;;;;;17.27;15.23;;;9.30;99.90;;;;;;4904963;29;20225;-72
2023/04/16 15:30:01;;;;;;;17.73;15.07;;;9.30;99.90;;;;;;4914970;29;20663;-72
2023/04/16 15:32:27;;;;;;;17.77;15.93;;;9.40;99.90;;;;;;4897998;29;20269;-73
2023/04/16 15:34:53;;;;;;;17.33;15.53;;;9.30;99.90;;;;;;4898024;29;20190;-72
2023/04/16 15:37:18;;;;;;;17.13;15.33;;;9.40;99.90;;;;;;4914407;29;20546;-72